sensor_id;sensor_type;location;lat;lon;timestamp;P1;durP1;ratioP1;P2;durP2;ratioP2
33714;SDS011;20043;50.998;4.754;2024-03-08T00:01:59;41.33;;;24.02;;
33714;SDS011;20043;50.998;4.754;2024-03-08T00:04:25;41.10;;;23.73;;
33714;SDS011;20043;50.998;4.754;2024-03-08T00:06:51;37.80;;;22.92;;
33714;SDS011;20043;50.998;4.754;2024-03-08T00:09:16;40.95;;;23.77;;
33714;SDS011;20043;50.998;4.754;2024-03-08T00:11:42;39.25;;;24.40;;
33714;SDS011;20043;50.998;4.754;2024-03-08T00:14:07;46.70;;;24.02;;
33714;SDS011;20043;50.998;4.754;2024-03-08T00:16:33;43.03;;;24.80;;
33714;SDS011;20043;50.998;4.754;2024-03-08T00:19:00;42.53;;;24.00;;
33714;SDS011;20043;50.998;4.754;2024-03-08T00:21:26;40.47;;;23.50;;
33714;SDS011;20043;50.998;4.754;2024-03-08T00:23:52;40.28;;;23.15;;
33714;SDS011;20043;50.998;4.754;2024-03-08T00:26:19;37.78;;;23.77;;
33714;SDS011;20043;50.998;4.754;2024-03-08T00:28:47;34.30;;;22.67;;
33714;SDS011;20043;50.998;4.754;2024-03-08T00:31:13;45.42;;;24.65;;
33714;SDS011;20043;50.998;4.754;2024-03-08T00:33:41;39.33;;;23.83;;
33714;SDS011;20043;50.998;4.754;2024-03-08T00:36:07;40.67;;;23.13;;
33714;SDS011;20043;50.998;4.754;2024-03-08T00:38:33;36.47;;;23.73;;
33714;SDS011;20043;50.998;4.754;2024-03-08T00:40:59;38.42;;;23.40;;
33714;SDS011;20043;50.998;4.754;2024-03-08T00:43:25;41.97;;;24.10;;
33714;SDS011;20043;50.998;4.754;2024-03-08T00:45:51;40.92;;;24.58;;
33714;SDS011;20043;50.998;4.754;2024-03-08T00:48:16;38.08;;;23.10;;
33714;SDS011;20043;50.998;4.754;2024-03-08T00:50:42;41.95;;;24.27;;
33714;SDS011;20043;50.998;4.754;2024-03-08T00:53:10;38.72;;;23.92;;
33714;SDS011;20043;50.998;4.754;2024-03-08T00:55:37;38.55;;;23.45;;
33714;SDS011;20043;50.998;4.754;2024-03-08T00:58:03;40.38;;;23.63;;
33714;SDS011;20043;50.998;4.754;2024-03-08T01:00:29;41.67;;;23.48;;
33714;SDS011;20043;50.998;4.754;2024-03-08T01:02:55;39.30;;;24.15;;
33714;SDS011;20043;50.998;4.754;2024-03-08T01:05:21;38.97;;;23.50;;
33714;SDS011;20043;50.998;4.754;2024-03-08T01:07:49;36.85;;;23.77;;
33714;SDS011;20043;50.998;4.754;2024-03-08T01:10:15;38.33;;;24.52;;
33714;SDS011;20043;50.998;4.754;2024-03-08T01:12:41;37.40;;;24.08;;
33714;SDS011;20043;50.998;4.754;2024-03-08T01:15:08;36.13;;;22.58;;
33714;SDS011;20043;50.998;4.754;2024-03-08T01:17:35;39.30;;;23.58;;
33714;SDS011;20043;50.998;4.754;2024-03-08T01:20:01;37.08;;;24.73;;
33714;SDS011;20043;50.998;4.754;2024-03-08T01:22:28;35.13;;;23.20;;
33714;SDS011;20043;50.998;4.754;2024-03-08T01:24:55;37.33;;;23.95;;
33714;SDS011;20043;50.998;4.754;2024-03-08T01:27:21;36.83;;;23.05;;
33714;SDS011;20043;50.998;4.754;2024-03-08T01:29:46;39.03;;;24.10;;
33714;SDS011;20043;50.998;4.754;2024-03-08T01:32:12;36.90;;;24.45;;
33714;SDS011;20043;50.998;4.754;2024-03-08T01:34:38;38.67;;;24.50;;
33714;SDS011;20043;50.998;4.754;2024-03-08T01:37:04;36.33;;;24.15;;
33714;SDS011;20043;50.998;4.754;2024-03-08T01:39:30;39.25;;;23.88;;
33714;SDS011;20043;50.998;4.754;2024-03-08T01:41:57;43.15;;;25.15;;
33714;SDS011;20043;50.998;4.754;2024-03-08T01:44:22;38.05;;;23.63;;
33714;SDS011;20043;50.998;4.754;2024-03-08T01:46:49;35.67;;;23.13;;
33714;SDS011;20043;50.998;4.754;2024-03-08T01:49:17;35.10;;;23.92;;
33714;SDS011;20043;50.998;4.754;2024-03-08T01:51:45;43.55;;;24.48;;
33714;SDS011;20043;50.998;4.754;2024-03-08T01:54:12;41.17;;;24.77;;
33714;SDS011;20043;50.998;4.754;2024-03-08T01:56:40;35.17;;;23.65;;
33714;SDS011;20043;50.998;4.754;2024-03-08T01:59:07;36.83;;;24.85;;
33714;SDS011;20043;50.998;4.754;2024-03-08T02:01:33;35.25;;;23.65;;
33714;SDS011;20043;50.998;4.754;2024-03-08T02:03:59;36.95;;;24.02;;
33714;SDS011;20043;50.998;4.754;2024-03-08T02:06:25;32.40;;;23.83;;
33714;SDS011;20043;50.998;4.754;2024-03-08T02:08:50;36.25;;;24.38;;
33714;SDS011;20043;50.998;4.754;2024-03-08T02:11:16;39.83;;;25.40;;
33714;SDS011;20043;50.998;4.754;2024-03-08T02:13:43;38.38;;;25.13;;
33714;SDS011;20043;50.998;4.754;2024-03-08T02:16:09;34.13;;;23.92;;
33714;SDS011;20043;50.998;4.754;2024-03-08T02:18:35;37.08;;;24.55;;
33714;SDS011;20043;50.998;4.754;2024-03-08T02:21:02;35.70;;;24.33;;
33714;SDS011;20043;50.998;4.754;2024-03-08T02:23:28;36.97;;;25.15;;
33714;SDS011;20043;50.998;4.754;2024-03-08T02:25:55;36.47;;;24.52;;
33714;SDS011;20043;50.998;4.754;2024-03-08T02:28:21;39.05;;;24.77;;
33714;SDS011;20043;50.998;4.754;2024-03-08T02:30:48;33.47;;;25.33;;
33714;SDS011;20043;50.998;4.754;2024-03-08T02:33:14;35.72;;;25.33;;
33714;SDS011;20043;50.998;4.754;2024-03-08T02:35:43;38.83;;;24.88;;
33714;SDS011;20043;50.998;4.754;2024-03-08T02:38:15;39.63;;;25.02;;
33714;SDS011;20043;50.998;4.754;2024-03-08T02:40:50;37.60;;;24.90;;
33714;SDS011;20043;50.998;4.754;2024-03-08T02:43:17;35.80;;;24.90;;
33714;SDS011;20043;50.998;4.754;2024-03-08T02:45:44;38.20;;;25.42;;
33714;SDS011;20043;50.998;4.754;2024-03-08T02:48:10;36.78;;;24.65;;
33714;SDS011;20043;50.998;4.754;2024-03-08T02:50:37;35.85;;;24.50;;
33714;SDS011;20043;50.998;4.754;2024-03-08T02:53:04;36.58;;;25.33;;
33714;SDS011;20043;50.998;4.754;2024-03-08T02:55:30;37.67;;;24.75;;
33714;SDS011;20043;50.998;4.754;2024-03-08T02:57:56;38.40;;;25.08;;
33714;SDS011;20043;50.998;4.754;2024-03-08T03:00:22;35.15;;;25.48;;
33714;SDS011;20043;50.998;4.754;2024-03-08T03:02:49;38.70;;;25.10;;
33714;SDS011;20043;50.998;4.754;2024-03-08T03:05:22;34.63;;;24.98;;
33714;SDS011;20043;50.998;4.754;2024-03-08T03:07:48;40.75;;;25.60;;
33714;SDS011;20043;50.998;4.754;2024-03-08T03:10:16;38.40;;;25.40;;
33714;SDS011;20043;50.998;4.754;2024-03-08T03:12:42;41.05;;;24.85;;
33714;SDS011;20043;50.998;4.754;2024-03-08T03:15:09;39.42;;;26.73;;
33714;SDS011;20043;50.998;4.754;2024-03-08T03:17:36;38.65;;;25.48;;
33714;SDS011;20043;50.998;4.754;2024-03-08T03:20:04;42.80;;;26.13;;
33714;SDS011;20043;50.998;4.754;2024-03-08T03:22:35;41.67;;;25.92;;
33714;SDS011;20043;50.998;4.754;2024-03-08T03:25:02;37.08;;;25.40;;
33714;SDS011;20043;50.998;4.754;2024-03-08T03:27:29;36.67;;;25.83;;
33714;SDS011;20043;50.998;4.754;2024-03-08T03:29:55;42.85;;;26.73;;
33714;SDS011;20043;50.998;4.754;2024-03-08T03:32:22;40.05;;;25.92;;
33714;SDS011;20043;50.998;4.754;2024-03-08T03:34:48;37.75;;;25.25;;
33714;SDS011;20043;50.998;4.754;2024-03-08T03:37:18;39.45;;;26.50;;
33714;SDS011;20043;50.998;4.754;2024-03-08T03:39:46;41.20;;;27.65;;
33714;SDS011;20043;50.998;4.754;2024-03-08T03:42:18;36.25;;;24.48;;
33714;SDS011;20043;50.998;4.754;2024-03-08T03:44:45;38.92;;;26.55;;
33714;SDS011;20043;50.998;4.754;2024-03-08T03:47:12;37.17;;;25.73;;
33714;SDS011;20043;50.998;4.754;2024-03-08T03:49:38;39.33;;;26.48;;
33714;SDS011;20043;50.998;4.754;2024-03-08T03:52:04;43.88;;;27.20;;
33714;SDS011;20043;50.998;4.754;2024-03-08T03:54:30;38.33;;;26.10;;
33714;SDS011;20043;50.998;4.754;2024-03-08T03:56:56;42.72;;;26.40;;
33714;SDS011;20043;50.998;4.754;2024-03-08T03:59:22;39.22;;;26.33;;
33714;SDS011;20043;50.998;4.754;2024-03-08T04:01:47;37.83;;;26.08;;
33714;SDS011;20043;50.998;4.754;2024-03-08T04:04:14;43.80;;;25.42;;
33714;SDS011;20043;50.998;4.754;2024-03-08T04:06:40;41.00;;;25.70;;
33714;SDS011;20043;50.998;4.754;2024-03-08T04:09:06;38.92;;;25.20;;
33714;SDS011;20043;50.998;4.754;2024-03-08T04:11:32;39.72;;;27.02;;
33714;SDS011;20043;50.998;4.754;2024-03-08T04:13:58;39.58;;;26.08;;
33714;SDS011;20043;50.998;4.754;2024-03-08T04:16:23;41.72;;;26.40;;
33714;SDS011;20043;50.998;4.754;2024-03-08T04:18:50;43.50;;;26.75;;
33714;SDS011;20043;50.998;4.754;2024-03-08T04:21:17;39.97;;;27.00;;
33714;SDS011;20043;50.998;4.754;2024-03-08T04:23:44;42.63;;;27.13;;
33714;SDS011;20043;50.998;4.754;2024-03-08T04:26:10;39.60;;;26.60;;
33714;SDS011;20043;50.998;4.754;2024-03-08T04:28:36;42.28;;;27.83;;
33714;SDS011;20043;50.998;4.754;2024-03-08T04:31:02;40.83;;;26.90;;
33714;SDS011;20043;50.998;4.754;2024-03-08T04:33:29;41.63;;;26.95;;
33714;SDS011;20043;50.998;4.754;2024-03-08T04:35:54;38.30;;;27.10;;
33714;SDS011;20043;50.998;4.754;2024-03-08T04:38:20;43.78;;;26.92;;
33714;SDS011;20043;50.998;4.754;2024-03-08T04:40:46;42.15;;;27.05;;
33714;SDS011;20043;50.998;4.754;2024-03-08T04:43:12;39.47;;;27.08;;
33714;SDS011;20043;50.998;4.754;2024-03-08T04:45:39;37.80;;;25.95;;
33714;SDS011;20043;50.998;4.754;2024-03-08T04:48:06;42.90;;;28.40;;
33714;SDS011;20043;50.998;4.754;2024-03-08T04:50:33;41.25;;;28.40;;
33714;SDS011;20043;50.998;4.754;2024-03-08T04:52:59;40.20;;;27.63;;
33714;SDS011;20043;50.998;4.754;2024-03-08T04:55:24;41.25;;;27.80;;
33714;SDS011;20043;50.998;4.754;2024-03-08T04:57:50;45.20;;;28.75;;
33714;SDS011;20043;50.998;4.754;2024-03-08T05:00:16;46.33;;;28.55;;
33714;SDS011;20043;50.998;4.754;2024-03-08T05:02:41;42.85;;;27.40;;
33714;SDS011;20043;50.998;4.754;2024-03-08T05:05:08;40.38;;;27.80;;
33714;SDS011;20043;50.998;4.754;2024-03-08T05:07:38;44.83;;;28.08;;
33714;SDS011;20043;50.998;4.754;2024-03-08T05:10:04;40.92;;;27.83;;
33714;SDS011;20043;50.998;4.754;2024-03-08T05:12:31;45.33;;;27.23;;
33714;SDS011;20043;50.998;4.754;2024-03-08T05:14:57;43.03;;;27.73;;
33714;SDS011;20043;50.998;4.754;2024-03-08T05:17:23;45.22;;;27.75;;
33714;SDS011;20043;50.998;4.754;2024-03-08T05:19:49;42.80;;;27.52;;
33714;SDS011;20043;50.998;4.754;2024-03-08T05:22:15;44.65;;;27.83;;
33714;SDS011;20043;50.998;4.754;2024-03-08T05:24:41;44.58;;;28.10;;
33714;SDS011;20043;50.998;4.754;2024-03-08T05:27:07;41.83;;;27.17;;
33714;SDS011;20043;50.998;4.754;2024-03-08T05:29:33;45.63;;;28.23;;
33714;SDS011;20043;50.998;4.754;2024-03-08T05:31:58;40.10;;;27.73;;
33714;SDS011;20043;50.998;4.754;2024-03-08T05:34:24;43.88;;;27.30;;
33714;SDS011;20043;50.998;4.754;2024-03-08T05:36:51;40.00;;;26.50;;
33714;SDS011;20043;50.998;4.754;2024-03-08T05:39:17;42.50;;;27.77;;
33714;SDS011;20043;50.998;4.754;2024-03-08T05:41:44;44.50;;;27.48;;
33714;SDS011;20043;50.998;4.754;2024-03-08T05:44:11;45.88;;;29.02;;
33714;SDS011;20043;50.998;4.754;2024-03-08T05:46:38;42.97;;;27.45;;
33714;SDS011;20043;50.998;4.754;2024-03-08T05:49:04;42.72;;;27.48;;
33714;SDS011;20043;50.998;4.754;2024-03-08T05:51:31;46.67;;;27.13;;
33714;SDS011;20043;50.998;4.754;2024-03-08T05:53:59;43.33;;;27.88;;
33714;SDS011;20043;50.998;4.754;2024-03-08T05:56:26;47.28;;;29.30;;
33714;SDS011;20043;50.998;4.754;2024-03-08T05:58:54;41.55;;;27.65;;
33714;SDS011;20043;50.998;4.754;2024-03-08T06:01:19;47.05;;;28.27;;
33714;SDS011;20043;50.998;4.754;2024-03-08T06:03:45;43.05;;;28.67;;
33714;SDS011;20043;50.998;4.754;2024-03-08T06:06:12;42.75;;;27.52;;
33714;SDS011;20043;50.998;4.754;2024-03-08T06:08:38;43.70;;;26.35;;
33714;SDS011;20043;50.998;4.754;2024-03-08T06:11:04;45.90;;;28.55;;
33714;SDS011;20043;50.998;4.754;2024-03-08T06:13:31;42.17;;;27.63;;
33714;SDS011;20043;50.998;4.754;2024-03-08T06:15:58;41.95;;;28.30;;
33714;SDS011;20043;50.998;4.754;2024-03-08T06:18:25;45.60;;;28.25;;
33714;SDS011;20043;50.998;4.754;2024-03-08T06:20:51;39.38;;;27.52;;
33714;SDS011;20043;50.998;4.754;2024-03-08T06:23:17;47.08;;;28.55;;
33714;SDS011;20043;50.998;4.754;2024-03-08T06:25:43;44.90;;;27.13;;
33714;SDS011;20043;50.998;4.754;2024-03-08T06:28:09;41.90;;;27.80;;
33714;SDS011;20043;50.998;4.754;2024-03-08T06:30:35;45.13;;;28.13;;
33714;SDS011;20043;50.998;4.754;2024-03-08T06:33:01;45.67;;;27.63;;
33714;SDS011;20043;50.998;4.754;2024-03-08T06:35:27;44.70;;;28.35;;
33714;SDS011;20043;50.998;4.754;2024-03-08T06:37:52;45.05;;;28.55;;
33714;SDS011;20043;50.998;4.754;2024-03-08T06:40:18;40.65;;;27.35;;
33714;SDS011;20043;50.998;4.754;2024-03-08T06:42:44;44.20;;;27.13;;
33714;SDS011;20043;50.998;4.754;2024-03-08T06:45:10;46.55;;;27.27;;
33714;SDS011;20043;50.998;4.754;2024-03-08T06:47:37;46.17;;;27.63;;
33714;SDS011;20043;50.998;4.754;2024-03-08T06:50:03;46.42;;;28.10;;
33714;SDS011;20043;50.998;4.754;2024-03-08T06:52:29;46.72;;;26.60;;
33714;SDS011;20043;50.998;4.754;2024-03-08T06:54:54;42.33;;;27.55;;
33714;SDS011;20043;50.998;4.754;2024-03-08T06:57:22;43.85;;;27.33;;
33714;SDS011;20043;50.998;4.754;2024-03-08T06:59:48;42.65;;;26.70;;
33714;SDS011;20043;50.998;4.754;2024-03-08T07:02:14;43.80;;;27.00;;
33714;SDS011;20043;50.998;4.754;2024-03-08T07:04:46;40.80;;;27.92;;
33714;SDS011;20043;50.998;4.754;2024-03-08T07:07:12;43.22;;;26.70;;
33714;SDS011;20043;50.998;4.754;2024-03-08T07:09:37;41.22;;;27.38;;
33714;SDS011;20043;50.998;4.754;2024-03-08T07:12:03;42.25;;;25.90;;
33714;SDS011;20043;50.998;4.754;2024-03-08T07:14:29;39.53;;;26.38;;
33714;SDS011;20043;50.998;4.754;2024-03-08T07:16:56;42.83;;;25.63;;
33714;SDS011;20043;50.998;4.754;2024-03-08T07:19:21;41.50;;;26.77;;
33714;SDS011;20043;50.998;4.754;2024-03-08T07:21:47;44.35;;;27.17;;
33714;SDS011;20043;50.998;4.754;2024-03-08T07:24:13;43.17;;;26.70;;
33714;SDS011;20043;50.998;4.754;2024-03-08T07:26:39;41.45;;;27.02;;
33714;SDS011;20043;50.998;4.754;2024-03-08T07:29:05;38.97;;;25.85;;
33714;SDS011;20043;50.998;4.754;2024-03-08T07:31:30;39.28;;;25.63;;
33714;SDS011;20043;50.998;4.754;2024-03-08T07:34:14;42.97;;;26.17;;
33714;SDS011;20043;50.998;4.754;2024-03-08T07:36:41;41.28;;;25.90;;
33714;SDS011;20043;50.998;4.754;2024-03-08T07:39:07;40.55;;;25.77;;
33714;SDS011;20043;50.998;4.754;2024-03-08T07:41:37;41.42;;;25.48;;
33714;SDS011;20043;50.998;4.754;2024-03-08T07:44:05;38.65;;;26.25;;
33714;SDS011;20043;50.998;4.754;2024-03-08T07:46:31;41.90;;;26.00;;
33714;SDS011;20043;50.998;4.754;2024-03-08T07:48:59;40.65;;;25.58;;
33714;SDS011;20043;50.998;4.754;2024-03-08T07:51:25;39.33;;;24.55;;
33714;SDS011;20043;50.998;4.754;2024-03-08T07:53:50;40.00;;;24.55;;
33714;SDS011;20043;50.998;4.754;2024-03-08T07:56:16;40.30;;;26.05;;
33714;SDS011;20043;50.998;4.754;2024-03-08T07:58:43;36.80;;;24.27;;
33714;SDS011;20043;50.998;4.754;2024-03-08T08:01:16;40.00;;;23.92;;
33714;SDS011;20043;50.998;4.754;2024-03-08T08:03:42;38.08;;;25.55;;
33714;SDS011;20043;50.998;4.754;2024-03-08T08:06:07;36.83;;;23.92;;
33714;SDS011;20043;50.998;4.754;2024-03-08T08:08:33;36.22;;;24.42;;
33714;SDS011;20043;50.998;4.754;2024-03-08T08:10:59;38.75;;;24.00;;
33714;SDS011;20043;50.998;4.754;2024-03-08T08:13:26;37.47;;;23.35;;
33714;SDS011;20043;50.998;4.754;2024-03-08T08:15:52;42.72;;;23.23;;
33714;SDS011;20043;50.998;4.754;2024-03-08T08:18:18;37.42;;;23.38;;
33714;SDS011;20043;50.998;4.754;2024-03-08T08:20:46;38.78;;;23.35;;
33714;SDS011;20043;50.998;4.754;2024-03-08T08:23:12;39.28;;;23.15;;
33714;SDS011;20043;50.998;4.754;2024-03-08T08:25:38;39.72;;;23.48;;
33714;SDS011;20043;50.998;4.754;2024-03-08T08:28:04;38.03;;;23.27;;
33714;SDS011;20043;50.998;4.754;2024-03-08T08:30:30;34.92;;;23.67;;
33714;SDS011;20043;50.998;4.754;2024-03-08T08:32:57;39.38;;;22.67;;
33714;SDS011;20043;50.998;4.754;2024-03-08T08:35:25;37.67;;;23.40;;
33714;SDS011;20043;50.998;4.754;2024-03-08T08:37:51;32.58;;;22.33;;
33714;SDS011;20043;50.998;4.754;2024-03-08T08:40:17;37.30;;;22.63;;
33714;SDS011;20043;50.998;4.754;2024-03-08T08:42:44;35.33;;;22.10;;
33714;SDS011;20043;50.998;4.754;2024-03-08T08:45:11;36.40;;;22.35;;
33714;SDS011;20043;50.998;4.754;2024-03-08T08:47:37;32.38;;;21.45;;
33714;SDS011;20043;50.998;4.754;2024-03-08T08:50:03;29.80;;;20.13;;
33714;SDS011;20043;50.998;4.754;2024-03-08T08:52:30;30.40;;;21.52;;
33714;SDS011;20043;50.998;4.754;2024-03-08T08:54:56;34.42;;;21.90;;
33714;SDS011;20043;50.998;4.754;2024-03-08T08:57:22;34.50;;;21.33;;
33714;SDS011;20043;50.998;4.754;2024-03-08T08:59:48;28.30;;;19.42;;
33714;SDS011;20043;50.998;4.754;2024-03-08T09:02:13;31.35;;;20.25;;
33714;SDS011;20043;50.998;4.754;2024-03-08T09:04:40;31.05;;;20.85;;
33714;SDS011;20043;50.998;4.754;2024-03-08T09:07:05;32.50;;;20.38;;
33714;SDS011;20043;50.998;4.754;2024-03-08T09:09:31;28.63;;;20.42;;
33714;SDS011;20043;50.998;4.754;2024-03-08T09:11:57;26.08;;;18.88;;
33714;SDS011;20043;50.998;4.754;2024-03-08T09:14:23;29.80;;;19.58;;
33714;SDS011;20043;50.998;4.754;2024-03-08T09:16:51;27.98;;;18.35;;
33714;SDS011;20043;50.998;4.754;2024-03-08T09:19:17;29.60;;;19.73;;
33714;SDS011;20043;50.998;4.754;2024-03-08T09:21:44;28.42;;;19.80;;
33714;SDS011;20043;50.998;4.754;2024-03-08T09:24:10;30.63;;;18.73;;
33714;SDS011;20043;50.998;4.754;2024-03-08T09:26:35;31.65;;;19.00;;
33714;SDS011;20043;50.998;4.754;2024-03-08T09:29:02;27.88;;;17.90;;
33714;SDS011;20043;50.998;4.754;2024-03-08T09:31:28;29.38;;;17.70;;
33714;SDS011;20043;50.998;4.754;2024-03-08T09:33:53;23.98;;;17.45;;
33714;SDS011;20043;50.998;4.754;2024-03-08T09:36:19;32.33;;;18.33;;
33714;SDS011;20043;50.998;4.754;2024-03-08T09:38:52;29.45;;;16.65;;
33714;SDS011;20043;50.998;4.754;2024-03-08T09:41:18;24.42;;;17.08;;
33714;SDS011;20043;50.998;4.754;2024-03-08T09:43:44;26.30;;;17.30;;
33714;SDS011;20043;50.998;4.754;2024-03-08T09:46:10;29.08;;;18.02;;
33714;SDS011;20043;50.998;4.754;2024-03-08T09:48:50;23.05;;;16.50;;
33714;SDS011;20043;50.998;4.754;2024-03-08T09:51:16;24.08;;;16.80;;
33714;SDS011;20043;50.998;4.754;2024-03-08T09:53:42;25.67;;;17.45;;
33714;SDS011;20043;50.998;4.754;2024-03-08T09:56:08;24.25;;;16.45;;
33714;SDS011;20043;50.998;4.754;2024-03-08T09:58:33;23.17;;;16.60;;
33714;SDS011;20043;50.998;4.754;2024-03-08T10:00:59;28.73;;;17.23;;
33714;SDS011;20043;50.998;4.754;2024-03-08T10:03:29;26.13;;;16.85;;
33714;SDS011;20043;50.998;4.754;2024-03-08T10:05:58;23.23;;;17.02;;
33714;SDS011;20043;50.998;4.754;2024-03-08T10:08:28;25.38;;;16.55;;
33714;SDS011;20043;50.998;4.754;2024-03-08T10:10:54;22.70;;;15.60;;
33714;SDS011;20043;50.998;4.754;2024-03-08T10:13:23;23.95;;;16.30;;
33714;SDS011;20043;50.998;4.754;2024-03-08T10:15:52;23.05;;;15.50;;
33714;SDS011;20043;50.998;4.754;2024-03-08T10:18:17;24.50;;;16.35;;
33714;SDS011;20043;50.998;4.754;2024-03-08T10:20:43;25.30;;;16.50;;
33714;SDS011;20043;50.998;4.754;2024-03-08T10:23:09;28.55;;;16.02;;
33714;SDS011;20043;50.998;4.754;2024-03-08T10:25:35;21.42;;;14.93;;
33714;SDS011;20043;50.998;4.754;2024-03-08T10:28:04;21.70;;;15.95;;
33714;SDS011;20043;50.998;4.754;2024-03-08T10:30:30;22.95;;;15.27;;
33714;SDS011;20043;50.998;4.754;2024-03-08T10:32:56;23.20;;;16.10;;
33714;SDS011;20043;50.998;4.754;2024-03-08T10:35:23;21.70;;;14.75;;
33714;SDS011;20043;50.998;4.754;2024-03-08T10:37:49;23.63;;;16.00;;
33714;SDS011;20043;50.998;4.754;2024-03-08T10:40:28;27.80;;;15.40;;
33714;SDS011;20043;50.998;4.754;2024-03-08T10:42:55;23.55;;;15.75;;
33714;SDS011;20043;50.998;4.754;2024-03-08T10:45:40;22.70;;;15.50;;
33714;SDS011;20043;50.998;4.754;2024-03-08T10:51:02;23.38;;;16.70;;
33714;SDS011;20043;50.998;4.754;2024-03-08T10:53:28;25.05;;;16.55;;
33714;SDS011;20043;50.998;4.754;2024-03-08T10:55:57;24.05;;;15.10;;
33714;SDS011;20043;50.998;4.754;2024-03-08T10:58:24;23.77;;;15.77;;
33714;SDS011;20043;50.998;4.754;2024-03-08T11:00:52;27.83;;;16.00;;
33714;SDS011;20043;50.998;4.754;2024-03-08T11:06:03;24.58;;;15.63;;
33714;SDS011;20043;50.998;4.754;2024-03-08T11:08:30;21.35;;;15.27;;
33714;SDS011;20043;50.998;4.754;2024-03-08T11:10:56;22.33;;;15.10;;
33714;SDS011;20043;50.998;4.754;2024-03-08T11:16:09;22.33;;;15.48;;
33714;SDS011;20043;50.998;4.754;2024-03-08T11:18:36;21.58;;;14.93;;
33714;SDS011;20043;50.998;4.754;2024-03-08T11:21:06;22.95;;;15.73;;
33714;SDS011;20043;50.998;4.754;2024-03-08T11:23:37;22.48;;;14.77;;
33714;SDS011;20043;50.998;4.754;2024-03-08T11:26:16;22.35;;;15.63;;
33714;SDS011;20043;50.998;4.754;2024-03-08T11:28:43;23.65;;;15.70;;
33714;SDS011;20043;50.998;4.754;2024-03-08T11:33:35;24.88;;;15.57;;
33714;SDS011;20043;50.998;4.754;2024-03-08T11:36:02;24.90;;;15.07;;
33714;SDS011;20043;50.998;4.754;2024-03-08T11:38:42;22.65;;;14.95;;
33714;SDS011;20043;50.998;4.754;2024-03-08T11:41:14;24.50;;;15.13;;
33714;SDS011;20043;50.998;4.754;2024-03-08T11:43:47;23.08;;;15.30;;
33714;SDS011;20043;50.998;4.754;2024-03-08T11:46:14;27.75;;;15.20;;
33714;SDS011;20043;50.998;4.754;2024-03-08T11:48:42;22.58;;;14.77;;
33714;SDS011;20043;50.998;4.754;2024-03-08T11:51:09;21.17;;;14.93;;
33714;SDS011;20043;50.998;4.754;2024-03-08T11:53:39;20.95;;;15.18;;
33714;SDS011;20043;50.998;4.754;2024-03-08T11:56:08;21.98;;;15.07;;
33714;SDS011;20043;50.998;4.754;2024-03-08T11:58:36;29.77;;;16.17;;
33714;SDS011;20043;50.998;4.754;2024-03-08T12:01:03;22.17;;;15.70;;
33714;SDS011;20043;50.998;4.754;2024-03-08T12:03:30;18.98;;;14.55;;
33714;SDS011;20043;50.998;4.754;2024-03-08T12:05:58;20.98;;;15.15;;
33714;SDS011;20043;50.998;4.754;2024-03-08T12:08:25;21.42;;;14.95;;
33714;SDS011;20043;50.998;4.754;2024-03-08T12:10:53;25.60;;;14.93;;
33714;SDS011;20043;50.998;4.754;2024-03-08T12:13:24;21.80;;;14.55;;
33714;SDS011;20043;50.998;4.754;2024-03-08T12:15:54;22.48;;;15.48;;
33714;SDS011;20043;50.998;4.754;2024-03-08T12:18:26;21.15;;;14.30;;
33714;SDS011;20043;50.998;4.754;2024-03-08T12:21:14;26.60;;;15.65;;
33714;SDS011;20043;50.998;4.754;2024-03-08T12:23:42;20.02;;;14.10;;
33714;SDS011;20043;50.998;4.754;2024-03-08T12:26:12;19.77;;;14.63;;
33714;SDS011;20043;50.998;4.754;2024-03-08T12:28:39;23.60;;;15.23;;
33714;SDS011;20043;50.998;4.754;2024-03-08T12:31:07;21.38;;;15.27;;
33714;SDS011;20043;50.998;4.754;2024-03-08T12:33:37;20.48;;;15.15;;
33714;SDS011;20043;50.998;4.754;2024-03-08T12:36:13;22.00;;;15.20;;
33714;SDS011;20043;50.998;4.754;2024-03-08T12:38:46;29.30;;;14.93;;
33714;SDS011;20043;50.998;4.754;2024-03-08T12:41:18;20.25;;;14.95;;
33714;SDS011;20043;50.998;4.754;2024-03-08T12:43:45;21.83;;;15.18;;
33714;SDS011;20043;50.998;4.754;2024-03-08T12:46:22;22.75;;;14.98;;
33714;SDS011;20043;50.998;4.754;2024-03-08T12:48:51;21.70;;;15.40;;
33714;SDS011;20043;50.998;4.754;2024-03-08T12:51:18;20.83;;;15.32;;
33714;SDS011;20043;50.998;4.754;2024-03-08T12:53:46;22.73;;;15.10;;
33714;SDS011;20043;50.998;4.754;2024-03-08T12:56:12;22.95;;;15.18;;
33714;SDS011;20043;50.998;4.754;2024-03-08T12:58:39;26.60;;;15.05;;
33714;SDS011;20043;50.998;4.754;2024-03-08T13:01:05;24.90;;;16.45;;
33714;SDS011;20043;50.998;4.754;2024-03-08T13:03:33;24.42;;;15.10;;
33714;SDS011;20043;50.998;4.754;2024-03-08T13:06:01;21.10;;;15.73;;
33714;SDS011;20043;50.998;4.754;2024-03-08T13:08:36;22.23;;;15.43;;
33714;SDS011;20043;50.998;4.754;2024-03-08T13:11:04;22.13;;;14.80;;
33714;SDS011;20043;50.998;4.754;2024-03-08T13:13:30;23.17;;;14.85;;
33714;SDS011;20043;50.998;4.754;2024-03-08T13:15:56;21.67;;;14.73;;
33714;SDS011;20043;50.998;4.754;2024-03-08T13:18:22;20.75;;;14.82;;
33714;SDS011;20043;50.998;4.754;2024-03-08T13:20:48;23.38;;;14.52;;
33714;SDS011;20043;50.998;4.754;2024-03-08T13:23:17;22.95;;;14.85;;
33714;SDS011;20043;50.998;4.754;2024-03-08T13:25:43;19.10;;;13.73;;
33714;SDS011;20043;50.998;4.754;2024-03-08T13:28:09;23.10;;;14.65;;
33714;SDS011;20043;50.998;4.754;2024-03-08T13:30:35;22.73;;;14.82;;
33714;SDS011;20043;50.998;4.754;2024-03-08T13:33:01;24.55;;;14.63;;
33714;SDS011;20043;50.998;4.754;2024-03-08T13:35:29;24.42;;;13.60;;
33714;SDS011;20043;50.998;4.754;2024-03-08T13:37:55;18.85;;;14.02;;
33714;SDS011;20043;50.998;4.754;2024-03-08T13:40:21;19.25;;;14.18;;
33714;SDS011;20043;50.998;4.754;2024-03-08T13:42:47;20.50;;;14.52;;
33714;SDS011;20043;50.998;4.754;2024-03-08T13:45:14;23.80;;;14.20;;
33714;SDS011;20043;50.998;4.754;2024-03-08T13:47:46;20.58;;;14.13;;
33714;SDS011;20043;50.998;4.754;2024-03-08T13:50:12;23.02;;;13.73;;
33714;SDS011;20043;50.998;4.754;2024-03-08T13:52:38;19.80;;;13.77;;
33714;SDS011;20043;50.998;4.754;2024-03-08T13:55:05;19.40;;;14.35;;
33714;SDS011;20043;50.998;4.754;2024-03-08T13:57:31;20.10;;;14.10;;
33714;SDS011;20043;50.998;4.754;2024-03-08T13:59:58;19.35;;;14.63;;
33714;SDS011;20043;50.998;4.754;2024-03-08T14:02:23;19.52;;;14.10;;
33714;SDS011;20043;50.998;4.754;2024-03-08T14:04:53;20.88;;;14.48;;
33714;SDS011;20043;50.998;4.754;2024-03-08T14:07:20;22.33;;;14.13;;
33714;SDS011;20043;50.998;4.754;2024-03-08T14:09:45;17.15;;;13.57;;
33714;SDS011;20043;50.998;4.754;2024-03-08T14:12:11;18.45;;;13.68;;
33714;SDS011;20043;50.998;4.754;2024-03-08T14:14:38;20.88;;;13.68;;
33714;SDS011;20043;50.998;4.754;2024-03-08T14:17:07;22.27;;;14.05;;
33714;SDS011;20043;50.998;4.754;2024-03-08T14:19:34;21.13;;;14.85;;
33714;SDS011;20043;50.998;4.754;2024-03-08T14:22:00;21.38;;;14.35;;
33714;SDS011;20043;50.998;4.754;2024-03-08T14:24:29;21.38;;;14.75;;
33714;SDS011;20043;50.998;4.754;2024-03-08T14:26:55;22.25;;;14.63;;
33714;SDS011;20043;50.998;4.754;2024-03-08T14:29:20;22.17;;;14.35;;
33714;SDS011;20043;50.998;4.754;2024-03-08T14:31:46;21.42;;;14.40;;